createdAt,value
2023-02-14T00:01:42.265Z,6.03
2023-02-14T00:04:10.209Z,5.77
2023-02-14T00:06:39.536Z,5.90
2023-02-14T00:09:08.273Z,5.51
2023-02-14T00:11:37.529Z,5.78
2023-02-14T00:14:23.744Z,5.90
2023-02-14T00:16:52.076Z,6.05
2023-02-14T00:19:22.522Z,5.97
2023-02-14T00:21:50.909Z,5.99
2023-02-14T00:24:21.677Z,6.01
2023-02-14T00:26:52.494Z,6.01
2023-02-14T00:29:23.086Z,6.07
2023-02-14T00:31:51.342Z,6.01
2023-02-14T00:34:20.179Z,5.69
2023-02-14T00:36:49.258Z,5.76
2023-02-14T00:39:18.627Z,5.78
2023-02-14T00:41:46.682Z,5.49
2023-02-14T00:44:16.054Z,5.46
2023-02-14T00:46:44.569Z,5.64
2023-02-14T00:49:12.457Z,5.69
2023-02-14T00:51:40.917Z,5.68
2023-02-14T00:54:08.892Z,5.51
2023-02-14T00:56:36.725Z,5.38
2023-02-14T00:59:04.657Z,5.39
2023-02-14T01:01:33.917Z,5.51
2023-02-14T01:04:01.728Z,5.60
2023-02-14T01:06:29.507Z,5.57
2023-02-14T01:08:57.519Z,5.39
2023-02-14T01:11:26.971Z,5.27
2023-02-14T01:13:57.413Z,5.41
2023-02-14T01:16:28.810Z,5.41
2023-02-14T01:19:00.416Z,5.42
2023-02-14T01:21:31.539Z,5.38
2023-02-14T01:24:03.256Z,5.21
2023-02-14T01:26:31.624Z,5.38
2023-02-14T01:28:59.586Z,5.40
2023-02-14T01:31:30.850Z,5.35
2023-02-14T01:34:01.354Z,5.27
2023-02-14T01:36:34.445Z,5.30
2023-02-14T01:39:05.467Z,5.30
2023-02-14T01:41:37.025Z,5.29
2023-02-14T01:44:08.282Z,5.24
2023-02-14T01:46:38.643Z,5.03
2023-02-14T01:49:16.488Z,5.32
2023-02-14T01:51:53.438Z,5.36
2023-02-14T01:54:26.920Z,5.27
2023-02-14T01:57:03.343Z,5.29
2023-02-14T01:59:40.851Z,5.27
2023-02-14T02:02:09.342Z,5.25
2023-02-14T02:04:43.993Z,5.31
2023-02-14T02:07:18.700Z,4.87
2023-02-14T02:09:52.357Z,5.09
2023-02-14T02:12:20.843Z,5.17
2023-02-14T02:14:53.809Z,5.26
2023-02-14T02:17:41.579Z,5.19
2023-02-14T02:20:56.716Z,5.03
2023-02-14T02:24:05.046Z,4.95
2023-02-14T02:27:26.103Z,4.87
2023-02-14T02:30:47.467Z,4.83
2023-02-14T02:34:02.901Z,4.81
2023-02-14T02:36:50.288Z,4.68
2023-02-14T02:39:37.279Z,4.47
2023-02-14T02:42:16.440Z,4.63
2023-02-14T02:45:04.571Z,4.54
2023-02-14T02:47:39.252Z,4.40
2023-02-14T02:50:42.409Z,4.35
2023-02-14T02:53:24.085Z,4.54
2023-02-14T02:56:16.207Z,4.40
2023-02-14T02:58:49.509Z,4.65
2023-02-14T03:01:24.731Z,4.64
2023-02-14T03:04:18.058Z,4.57
2023-02-14T03:06:46.189Z,4.60
2023-02-14T03:09:58.597Z,4.68
2023-02-14T03:13:15.278Z,4.68
2023-02-14T03:16:15.852Z,4.62
2023-02-14T03:19:23.034Z,4.66
2023-02-14T03:22:00.067Z,4.63
2023-02-14T03:24:45.957Z,4.62
2023-02-14T03:27:22.836Z,4.59
2023-02-14T03:30:04.726Z,4.54
2023-02-14T03:32:43.639Z,4.72
2023-02-14T03:35:22.052Z,4.78
2023-02-14T03:37:58.367Z,4.83
2023-02-14T03:40:37.265Z,4.76
2023-02-14T03:43:11.974Z,4.76
2023-02-14T03:45:47.111Z,4.75
2023-02-14T03:48:17.575Z,4.68
2023-02-14T03:50:51.067Z,4.64
2023-02-14T03:53:24.725Z,4.71
2023-02-14T03:56:04.008Z,4.73
2023-02-14T03:58:38.532Z,4.68
2023-02-14T04:01:14.412Z,4.61
2023-02-14T04:03:44.312Z,4.71
2023-02-14T04:06:12.300Z,4.71
2023-02-14T04:08:40.526Z,4.72
2023-02-14T04:11:09.813Z,4.68
2023-02-14T04:13:39.243Z,4.72
2023-02-14T04:16:08.472Z,4.72
2023-02-14T04:18:53.983Z,4.73
2023-02-14T04:21:21.800Z,4.72
2023-02-14T04:23:49.622Z,4.28
2023-02-14T04:26:18.728Z,4.57
2023-02-14T04:28:46.570Z,4.55
2023-02-14T04:31:14.509Z,4.56
2023-02-14T04:33:44.799Z,4.63
2023-02-14T04:36:12.939Z,4.65
2023-02-14T04:38:41.119Z,4.65
2023-02-14T04:41:08.914Z,4.70
2023-02-14T04:43:38.073Z,4.73
2023-02-14T04:46:05.978Z,4.72
2023-02-14T04:48:33.782Z,4.71
2023-02-14T04:51:01.848Z,4.69
2023-02-14T04:53:29.753Z,4.67
2023-02-14T04:55:57.527Z,4.71
2023-02-14T04:58:25.307Z,4.73
2023-02-14T05:00:54.540Z,4.76
2023-02-14T05:03:22.372Z,4.77
2023-02-14T05:05:50.185Z,4.82
2023-02-14T05:08:18.081Z,4.85
2023-02-14T05:10:45.827Z,4.83
2023-02-14T05:13:14.336Z,4.87
2023-02-14T05:15:42.088Z,4.83
2023-02-14T05:18:11.249Z,4.88
2023-02-14T05:20:39.145Z,4.90
2023-02-14T05:23:13.422Z,4.78
2023-02-14T05:25:41.341Z,4.61
2023-02-14T05:28:09.237Z,4.77
2023-02-14T05:30:38.674Z,4.77
2023-02-14T05:33:06.760Z,4.73
2023-02-14T05:35:35.913Z,4.76
2023-02-14T05:38:03.968Z,4.74
2023-02-14T05:40:32.953Z,4.76
2023-02-14T05:43:00.804Z,4.72
2023-02-14T05:45:28.661Z,4.75
2023-02-14T05:47:56.615Z,4.75
2023-02-14T05:50:24.415Z,4.77
2023-02-14T05:52:53.605Z,4.77
2023-02-14T05:55:21.736Z,4.72
2023-02-14T05:57:49.557Z,4.75
2023-02-14T06:00:19.125Z,4.67
2023-02-14T06:02:46.926Z,4.66
2023-02-14T06:05:17.672Z,4.59
2023-02-14T06:07:50.193Z,4.52
2023-02-14T06:10:21.562Z,4.52
2023-02-14T06:12:51.194Z,4.57
2023-02-14T06:15:19.651Z,4.44
2023-02-14T06:17:53.959Z,4.53
2023-02-14T06:20:24.111Z,4.57
2023-02-14T06:22:52.132Z,4.41
2023-02-14T06:25:22.559Z,4.57
2023-02-14T06:27:50.685Z,4.58
2023-02-14T06:30:19.760Z,4.59
2023-02-14T06:32:47.536Z,4.43
2023-02-14T06:35:16.538Z,4.59
2023-02-14T06:37:45.245Z,4.61
2023-02-14T06:40:15.248Z,4.64
2023-02-14T06:42:44.482Z,4.63
2023-02-14T06:45:12.496Z,4.64
2023-02-14T06:47:41.271Z,4.43
2023-02-14T06:50:11.671Z,4.72
2023-02-14T06:52:42.088Z,4.76
2023-02-14T06:55:11.683Z,4.80
2023-02-14T06:57:40.183Z,4.87
2023-02-14T07:00:11.172Z,4.95
2023-02-14T07:02:39.114Z,4.93
2023-02-14T07:05:07.426Z,4.98
2023-02-14T07:07:35.287Z,5.11
2023-02-14T07:10:03.102Z,5.13
2023-02-14T07:12:42.275Z,4.83
2023-02-14T07:15:14.830Z,4.95
2023-02-14T07:17:42.673Z,5.08
2023-02-14T07:20:12.756Z,5.13
2023-02-14T07:22:40.987Z,5.19
2023-02-14T07:25:09.463Z,5.32
2023-02-14T07:27:37.464Z,5.74
2023-02-14T07:30:07.698Z,5.74
2023-02-14T07:32:38.049Z,5.87
2023-02-14T07:35:06.635Z,6.37
2023-02-14T07:37:35.266Z,6.59
2023-02-14T07:40:05.343Z,6.78
2023-02-14T07:42:34.036Z,7.23
2023-02-14T07:45:12.535Z,7.04
2023-02-14T07:47:51.415Z,7.33
2023-02-14T07:50:19.803Z,7.13
2023-02-14T07:52:47.742Z,7.96
2023-02-14T07:55:16.400Z,7.95
2023-02-14T07:57:44.222Z,8.38
2023-02-14T08:00:14.424Z,8.64
2023-02-14T08:02:42.427Z,9.43
2023-02-14T08:05:11.943Z,10.52
2023-02-14T08:07:39.814Z,11.01
2023-02-14T08:10:09.752Z,10.74
2023-02-14T08:12:56.285Z,11.51
2023-02-14T08:15:41.644Z,11.25
2023-02-14T08:18:09.662Z,11.98
2023-02-14T08:20:38.894Z,11.35
2023-02-14T08:23:06.699Z,12.21
2023-02-14T08:25:34.506Z,12.22
2023-02-14T08:28:04.043Z,12.36
2023-02-14T08:30:32.435Z,11.12
2023-02-14T08:33:00.264Z,11.37
2023-02-14T08:35:28.159Z,11.43
2023-02-14T08:37:57.301Z,11.97
2023-02-14T08:40:25.362Z,11.56
2023-02-14T08:42:53.209Z,12.02
2023-02-14T08:45:21.723Z,12.52
2023-02-14T08:47:49.590Z,13.28
2023-02-14T08:50:20.282Z,12.52
2023-02-14T08:52:48.137Z,13.09
2023-02-14T08:55:17.328Z,14.35
2023-02-14T08:57:45.132Z,14.75
2023-02-14T09:00:14.186Z,13.00
2023-02-14T09:02:42.164Z,13.70
2023-02-14T09:05:10.807Z,13.80
2023-02-14T09:07:38.685Z,13.04
2023-02-14T09:10:08.640Z,13.60
2023-02-14T09:12:40.028Z,13.91
2023-02-14T09:15:09.326Z,13.82
2023-02-14T09:17:37.956Z,14.82
2023-02-14T09:20:07.707Z,14.79
2023-02-14T09:22:36.001Z,14.06
2023-02-14T09:25:03.838Z,14.09
2023-02-14T09:27:32.308Z,14.36
2023-02-14T09:30:01.493Z,14.03
2023-02-14T09:32:29.874Z,15.15
2023-02-14T09:34:57.823Z,13.59
2023-02-14T09:37:25.601Z,14.81
2023-02-14T09:39:53.398Z,15.46
2023-02-14T09:42:41.729Z,15.04
2023-02-14T09:45:15.722Z,15.92
2023-02-14T09:47:51.882Z,15.70
2023-02-14T09:50:26.521Z,15.31
2023-02-14T09:53:02.445Z,14.50
2023-02-14T09:55:43.524Z,15.21
2023-02-14T09:58:19.067Z,15.57
2023-02-14T10:00:58.431Z,16.33
2023-02-14T10:04:17.977Z,16.15
2023-02-14T10:06:58.006Z,15.99
2023-02-14T10:09:54.172Z,17.82
2023-02-14T10:12:27.784Z,16.93
2023-02-14T10:15:00.301Z,17.06
2023-02-14T10:17:42.351Z,16.18
2023-02-14T10:20:23.291Z,15.58
2023-02-14T10:23:04.335Z,16.38
2023-02-14T10:25:43.688Z,16.04
2023-02-14T10:28:16.948Z,15.68
2023-02-14T10:30:59.231Z,16.21
2023-02-14T10:33:36.039Z,15.67
2023-02-14T10:36:16.894Z,15.37
2023-02-14T10:38:59.675Z,15.71
2023-02-14T10:41:49.048Z,15.26
2023-02-14T10:44:32.230Z,14.99
2023-02-14T10:47:10.477Z,15.15
2023-02-14T10:49:52.260Z,14.90
2023-02-14T10:52:28.352Z,15.53
2023-02-14T10:55:01.091Z,15.59
2023-02-14T10:57:34.968Z,14.89
2023-02-14T11:00:07.652Z,15.34
2023-02-14T11:02:40.077Z,15.43
2023-02-14T11:05:25.388Z,15.66
2023-02-14T11:07:53.300Z,15.54
2023-02-14T11:10:28.015Z,15.50
2023-02-14T11:12:55.939Z,15.63
2023-02-14T11:15:28.553Z,15.92
2023-02-14T11:18:23.708Z,15.78
2023-02-14T11:21:08.670Z,16.45
2023-02-14T11:23:41.198Z,17.05
2023-02-14T11:26:24.250Z,16.50
2023-02-14T11:28:57.352Z,18.20
2023-02-14T11:31:33.959Z,18.26
2023-02-14T11:34:05.484Z,18.15
2023-02-14T11:36:42.899Z,19.00
2023-02-14T11:39:28.506Z,19.75
2023-02-14T11:41:59.057Z,20.10
2023-02-14T11:44:30.009Z,20.13
2023-02-14T11:47:17.668Z,20.83
2023-02-14T11:49:57.387Z,19.92
2023-02-14T11:52:29.594Z,20.36
2023-02-14T11:54:58.755Z,21.28
2023-02-14T11:57:33.270Z,20.71
2023-02-14T12:00:12.416Z,20.57
2023-02-14T12:02:45.730Z,19.60
2023-02-14T12:05:22.007Z,20.58
2023-02-14T12:07:55.370Z,19.78
2023-02-14T12:10:29.995Z,20.62
2023-02-14T12:13:02.595Z,20.29
2023-02-14T12:15:36.729Z,19.82
2023-02-14T12:18:43.837Z,19.73
2023-02-14T12:21:43.469Z,18.75
2023-02-14T12:24:31.603Z,18.78
2023-02-14T12:27:17.702Z,18.53
2023-02-14T12:29:49.844Z,19.65
2023-02-14T12:32:25.304Z,19.22
2023-02-14T12:35:01.698Z,18.74
2023-02-14T12:37:48.822Z,18.71
2023-02-14T12:40:27.628Z,17.53
2023-02-14T12:43:16.957Z,17.44
2023-02-14T12:46:08.136Z,18.12
2023-02-14T12:49:02.942Z,18.32
2023-02-14T12:51:40.758Z,19.11
2023-02-14T12:54:40.406Z,19.99
2023-02-14T12:57:28.405Z,19.37
2023-02-14T13:00:14.749Z,19.12
2023-02-14T13:03:33.688Z,19.65
2023-02-14T13:06:13.667Z,19.84
2023-02-14T13:09:02.164Z,19.77
2023-02-14T13:11:44.735Z,19.70
2023-02-14T13:14:32.927Z,19.73
2023-02-14T13:17:12.691Z,20.39
2023-02-14T13:19:51.547Z,20.66
2023-02-14T13:22:24.998Z,21.27
2023-02-14T13:24:59.984Z,21.04
2023-02-14T13:27:36.359Z,21.04
2023-02-14T13:30:15.468Z,20.21
2023-02-14T13:32:49.375Z,19.95
2023-02-14T13:35:21.030Z,20.38
2023-02-14T13:37:54.752Z,20.99
2023-02-14T13:40:26.768Z,19.87
2023-02-14T13:42:57.650Z,21.38
2023-02-14T13:45:56.959Z,21.02
2023-02-14T13:48:27.447Z,20.16
2023-02-14T13:51:01.480Z,20.44
2023-02-14T13:53:40.205Z,21.44
2023-02-14T13:56:34.876Z,21.68
2023-02-14T13:59:06.901Z,21.22
2023-02-14T14:01:42.787Z,22.00
2023-02-14T14:04:36.214Z,21.90
2023-02-14T14:07:25.625Z,21.28
2023-02-14T14:09:57.258Z,20.99
2023-02-14T14:12:44.510Z,20.92
2023-02-14T14:15:20.655Z,21.44
2023-02-14T14:18:42.744Z,21.38
2023-02-14T14:21:17.473Z,21.09
2023-02-14T14:23:45.512Z,21.67
2023-02-14T14:26:37.077Z,19.93
2023-02-14T14:29:17.183Z,21.06
2023-02-14T14:31:46.679Z,21.45
2023-02-14T14:34:19.750Z,20.80
2023-02-14T14:36:48.211Z,21.41
2023-02-14T14:39:29.520Z,20.86
2023-02-14T14:42:07.078Z,20.34
2023-02-14T14:44:37.098Z,21.27
2023-02-14T14:47:05.122Z,21.23
2023-02-14T14:49:34.745Z,20.75
2023-02-14T14:52:02.624Z,20.32
2023-02-14T14:54:32.980Z,20.24
2023-02-14T14:57:04.121Z,19.02
2023-02-14T14:59:35.589Z,19.05
2023-02-14T15:02:05.456Z,18.71
2023-02-14T15:04:36.534Z,17.25
2023-02-14T15:07:21.241Z,17.40
2023-02-14T15:09:49.172Z,17.42
2023-02-14T15:12:41.239Z,17.18
2023-02-14T15:15:13.695Z,16.89
2023-02-14T15:17:44.561Z,16.96
2023-02-14T15:20:21.382Z,16.52
2023-02-14T15:22:52.911Z,16.66
2023-02-14T15:25:24.335Z,16.66
2023-02-14T15:27:52.656Z,16.06
2023-02-14T15:30:29.672Z,16.13
2023-02-14T15:32:59.086Z,15.52
2023-02-14T15:35:34.072Z,15.76
2023-02-14T15:38:06.870Z,15.69
2023-02-14T15:40:38.758Z,15.58
2023-02-14T15:43:22.831Z,15.76
2023-02-14T15:45:56.399Z,15.91
2023-02-14T15:48:30.857Z,15.77
2023-02-14T15:51:06.285Z,15.46
2023-02-14T15:53:43.255Z,15.67
2023-02-14T15:56:24.779Z,15.55
2023-02-14T15:59:01.571Z,15.39
2023-02-14T16:01:31.209Z,15.46
2023-02-14T16:04:03.754Z,15.30
2023-02-14T16:06:39.713Z,15.31
2023-02-14T16:09:25.465Z,15.28
2023-02-14T16:11:54.081Z,15.29
2023-02-14T16:14:32.583Z,15.26
2023-02-14T16:17:03.602Z,15.30
2023-02-14T16:19:41.669Z,15.30
2023-02-14T16:22:13.183Z,15.35
2023-02-14T16:24:41.978Z,15.04
2023-02-14T16:27:13.246Z,15.34
2023-02-14T16:29:41.456Z,15.28
2023-02-14T16:32:20.750Z,15.09
2023-02-14T16:34:49.614Z,15.25
2023-02-14T16:37:25.332Z,14.70
2023-02-14T16:39:57.641Z,14.54
2023-02-14T16:42:25.831Z,14.64
2023-02-14T16:44:53.863Z,14.55
2023-02-14T16:47:22.544Z,14.58
2023-02-14T16:49:52.996Z,14.02
2023-02-14T16:52:26.503Z,13.92
2023-02-14T16:54:55.053Z,13.66
2023-02-14T16:57:28.805Z,14.23
2023-02-14T16:59:57.850Z,14.16
2023-02-14T17:02:28.238Z,14.21
2023-02-14T17:04:56.610Z,14.16
2023-02-14T17:07:26.250Z,13.70
2023-02-14T17:10:03.080Z,13.96
2023-02-14T17:12:36.151Z,13.64
2023-02-14T17:15:11.959Z,13.55
2023-02-14T17:17:40.144Z,13.41
2023-02-14T17:20:09.850Z,13.05
2023-02-14T17:22:39.161Z,12.97
2023-02-14T17:25:07.732Z,13.23
2023-02-14T17:27:35.571Z,13.26
2023-02-14T17:30:03.582Z,13.02
2023-02-14T17:32:31.454Z,13.06
2023-02-14T17:35:00.988Z,13.03
2023-02-14T17:37:29.467Z,12.99
2023-02-14T17:39:58.979Z,12.98
2023-02-14T17:42:26.805Z,12.94
2023-02-14T17:44:54.581Z,12.91
2023-02-14T17:47:22.379Z,12.94
2023-02-14T17:49:50.190Z,12.97
2023-02-14T17:52:18.479Z,12.82
2023-02-14T17:54:49.884Z,12.36
2023-02-14T17:57:34.449Z,12.63
2023-02-14T18:00:02.378Z,12.75
2023-02-14T18:02:30.262Z,12.41
2023-02-14T18:04:58.490Z,12.36
2023-02-14T18:07:26.374Z,12.09
2023-02-14T18:09:54.252Z,12.13
2023-02-14T18:12:22.117Z,11.91
2023-02-14T18:14:53.183Z,11.96
2023-02-14T18:17:20.964Z,11.78
2023-02-14T18:19:48.762Z,11.65
2023-02-14T18:22:16.825Z,11.51
2023-02-14T18:24:44.627Z,11.55
2023-02-14T18:27:15.793Z,11.48
2023-02-14T18:29:43.610Z,11.28
2023-02-14T18:32:12.791Z,11.30
2023-02-14T18:34:40.712Z,11.18
2023-02-14T18:37:08.518Z,10.80
2023-02-14T18:39:36.277Z,10.61
2023-02-14T18:42:05.388Z,10.57
2023-02-14T18:44:33.455Z,10.50
2023-02-14T18:47:02.605Z,10.38
2023-02-14T18:49:31.745Z,10.47
2023-02-14T18:51:59.544Z,10.35
2023-02-14T18:54:27.408Z,10.36
2023-02-14T18:56:55.178Z,10.29
2023-02-14T18:59:23.079Z,10.25
2023-02-14T19:01:50.963Z,10.20
2023-02-14T19:04:18.791Z,10.34
2023-02-14T19:06:48.253Z,10.26
2023-02-14T19:09:18.679Z,10.29
2023-02-14T19:11:47.160Z,10.28
2023-02-14T19:14:14.943Z,10.05
2023-02-14T19:16:50.297Z,10.21
2023-02-14T19:19:19.635Z,10.00
2023-02-14T19:21:49.481Z,10.08
2023-02-14T19:24:19.384Z,9.64
2023-02-14T19:26:48.465Z,9.90
2023-02-14T19:29:20.030Z,9.95
2023-02-14T19:31:51.984Z,9.72
2023-02-14T19:34:23.486Z,9.71
2023-02-14T19:36:54.550Z,9.79
2023-02-14T19:39:24.395Z,9.73
2023-02-14T19:41:52.737Z,9.55
2023-02-14T19:44:20.533Z,9.63
2023-02-14T19:46:48.734Z,9.50
2023-02-14T19:49:20.272Z,9.54
2023-02-14T19:51:52.185Z,9.56
2023-02-14T19:54:27.347Z,9.44
2023-02-14T19:56:56.264Z,9.40
2023-02-14T19:59:24.450Z,9.40
2023-02-14T20:01:54.648Z,9.42
2023-02-14T20:04:26.180Z,9.40
2023-02-14T20:06:56.264Z,9.39
2023-02-14T20:09:25.528Z,9.32
2023-02-14T20:11:57.000Z,9.19
2023-02-14T20:14:28.714Z,9.11
2023-02-14T20:16:59.551Z,9.07
2023-02-14T20:19:32.108Z,8.81
2023-02-14T20:22:02.745Z,8.86
2023-02-14T20:24:33.015Z,8.76
2023-02-14T20:27:02.301Z,8.86
2023-02-14T20:29:30.555Z,8.84
2023-02-14T20:32:03.349Z,8.77
2023-02-14T20:34:31.503Z,8.64
2023-02-14T20:37:00.741Z,8.70
2023-02-14T20:39:31.465Z,8.73
2023-02-14T20:41:59.626Z,8.67
2023-02-14T20:44:28.133Z,8.54
2023-02-14T20:46:57.244Z,8.47
2023-02-14T20:49:28.451Z,8.45
2023-02-14T20:51:56.903Z,8.41
2023-02-14T20:54:29.020Z,8.53
2023-02-14T20:56:58.481Z,8.50
2023-02-14T20:59:28.466Z,8.43
2023-02-14T21:01:58.290Z,8.52
2023-02-14T21:04:26.832Z,8.45
2023-02-14T21:06:54.727Z,8.47
2023-02-14T21:09:22.511Z,8.37
2023-02-14T21:11:53.753Z,8.41
2023-02-14T21:14:21.606Z,8.19
2023-02-14T21:16:49.498Z,8.05
2023-02-14T21:19:17.523Z,7.45
2023-02-14T21:21:45.626Z,7.52
2023-02-14T21:24:15.820Z,7.75
2023-02-14T21:26:44.767Z,7.77
2023-02-14T21:29:14.115Z,7.75
2023-02-14T21:31:42.400Z,7.78
2023-02-14T21:34:10.402Z,7.77
2023-02-14T21:36:38.232Z,7.85
2023-02-14T21:39:08.177Z,7.76
2023-02-14T21:41:38.007Z,7.76
2023-02-14T21:44:07.204Z,7.78
2023-02-14T21:46:41.013Z,7.78
2023-02-14T21:49:26.769Z,7.66
2023-02-14T21:51:54.538Z,7.60
2023-02-14T21:54:22.382Z,7.41
2023-02-14T21:56:50.270Z,7.39
2023-02-14T21:59:18.057Z,7.46
2023-02-14T22:01:47.284Z,7.18
2023-02-14T22:04:15.123Z,7.40
2023-02-14T22:06:44.081Z,7.27
2023-02-14T22:09:17.349Z,7.04
2023-02-14T22:11:47.415Z,6.53
2023-02-14T22:14:15.916Z,7.07
2023-02-14T22:16:43.848Z,7.15
2023-02-14T22:19:16.314Z,7.21
2023-02-14T22:21:45.064Z,7.27
2023-02-14T22:24:13.551Z,7.25
2023-02-14T22:26:42.037Z,7.08
2023-02-14T22:29:12.583Z,6.78
2023-02-14T22:31:42.600Z,7.00
2023-02-14T22:34:17.578Z,7.00
2023-02-14T22:36:45.440Z,7.05
2023-02-14T22:39:16.328Z,7.11
2023-02-14T22:41:44.172Z,7.07
2023-02-14T22:44:13.637Z,7.08
2023-02-14T22:46:41.637Z,6.91
2023-02-14T22:49:09.683Z,6.88
2023-02-14T22:51:41.419Z,6.47
2023-02-14T22:54:13.398Z,6.66
2023-02-14T22:56:43.458Z,6.72
2023-02-14T22:59:18.263Z,6.72
2023-02-14T23:01:47.473Z,6.69
2023-02-14T23:04:17.918Z,6.61
2023-02-14T23:06:47.056Z,6.38
2023-02-14T23:09:16.432Z,6.39
2023-02-14T23:11:46.141Z,6.40
2023-02-14T23:14:33.684Z,6.38
2023-02-14T23:17:19.448Z,6.21
2023-02-14T23:20:06.253Z,5.87
2023-02-14T23:22:38.397Z,6.07
2023-02-14T23:25:08.814Z,6.02
2023-02-14T23:27:39.559Z,6.09
2023-02-14T23:30:11.606Z,6.12
2023-02-14T23:32:39.693Z,6.08
2023-02-14T23:35:08.399Z,5.91
2023-02-14T23:37:38.432Z,6.01
2023-02-14T23:40:08.423Z,5.83
2023-02-14T23:42:36.284Z,5.91
2023-02-14T23:45:18.269Z,5.88
2023-02-14T23:47:46.050Z,5.98
2023-02-14T23:50:13.864Z,5.94
2023-02-14T23:52:44.496Z,5.94
2023-02-14T23:55:12.452Z,5.61
2023-02-14T23:57:40.663Z,5.76
